createdAt,value
2017-11-03T00:04:35.993Z,42.77
2017-11-03T00:09:39.206Z,41.97
2017-11-03T00:14:42.412Z,45.07
2017-11-03T00:19:45.633Z,36.37
2017-11-03T00:24:48.830Z,36.83
2017-11-03T00:29:52.010Z,36.87
2017-11-03T00:34:55.202Z,47.73
2017-11-03T00:39:58.480Z,43.93
2017-11-03T00:45:02.442Z,39.67
2017-11-03T00:50:05.655Z,40.70
2017-11-03T00:55:08.932Z,46.43
2017-11-03T01:00:12.882Z,43.93
2017-11-03T01:05:16.058Z,44.97
2017-11-03T01:10:20.067Z,36.83
2017-11-03T01:15:23.395Z,40.63
2017-11-03T01:20:27.346Z,44.93
2017-11-03T01:25:30.549Z,41.67
2017-11-03T01:30:33.750Z,47.27
2017-11-03T01:35:36.963Z,44.73
2017-11-03T01:40:40.127Z,45.97
2017-11-03T01:45:44.082Z,45.40
2017-11-03T01:50:47.270Z,45.70
2017-11-03T01:55:51.243Z,44.70
2017-11-03T02:00:54.458Z,48.47
2017-11-03T02:05:57.639Z,45.03
2017-11-03T02:11:00.826Z,49.77
2017-11-03T02:16:04.034Z,56.53
2017-11-03T02:21:07.299Z,53.67
2017-11-03T02:26:10.492Z,43.13
2017-11-03T02:31:13.673Z,51.70
2017-11-03T02:36:16.883Z,56.27
2017-11-03T02:41:20.058Z,55.87
2017-11-03T02:46:23.272Z,56.20
2017-11-03T02:51:26.448Z,54.20
2017-11-03T02:56:29.654Z,49.10
2017-11-03T03:01:32.857Z,53.63
2017-11-03T03:06:36.054Z,57.27
2017-11-03T03:11:39.254Z,53.70
2017-11-03T03:16:42.437Z,56.73
2017-11-03T03:21:45.626Z,54.40
2017-11-03T03:26:48.790Z,62.87
2017-11-03T03:31:51.967Z,55.10
2017-11-03T03:36:55.162Z,58.90
2017-11-03T03:41:58.329Z,57.43
2017-11-03T03:47:01.486Z,71.83
2017-11-03T03:52:04.675Z,68.70
2017-11-03T03:57:07.826Z,68.07
2017-11-03T04:02:11.822Z,64.80
2017-11-03T04:07:15.030Z,65.13
2017-11-03T04:12:18.207Z,67.70
2017-11-03T04:17:21.415Z,65.60
2017-11-03T04:22:24.601Z,67.90
2017-11-03T04:27:27.781Z,68.53
2017-11-03T04:32:30.937Z,61.70
2017-11-03T04:37:34.160Z,60.87
2017-11-03T04:42:37.363Z,53.70
2017-11-03T04:47:40.545Z,59.83
2017-11-03T04:52:43.710Z,58.77
2017-11-03T04:57:46.896Z,49.27
2017-11-03T05:02:50.186Z,69.13
2017-11-03T05:07:53.383Z,64.07
2017-11-03T05:12:56.562Z,73.13
2017-11-03T05:17:59.762Z,70.23
2017-11-03T05:23:04.376Z,67.23
2017-11-03T05:28:07.562Z,78.03
2017-11-03T05:33:10.740Z,73.80
2017-11-03T05:38:14.063Z,71.57
2017-11-03T05:43:17.262Z,63.27
2017-11-03T05:48:20.442Z,61.53
2017-11-03T05:53:23.618Z,59.03
2017-11-03T05:58:26.837Z,61.90
2017-11-03T06:03:30.817Z,56.47
2017-11-03T06:08:34.050Z,59.85
2017-11-03T06:13:37.240Z,71.77
2017-11-03T06:18:40.435Z,58.00
2017-11-03T06:23:43.629Z,64.73
2017-11-03T06:28:48.656Z,59.27
2017-11-03T06:33:51.848Z,50.93
2017-11-03T06:38:55.782Z,63.92
2017-11-03T06:43:59.943Z,60.43
2017-11-03T06:49:03.138Z,61.03
2017-11-03T06:54:06.301Z,62.70
2017-11-03T06:59:09.554Z,84.60
2017-11-03T07:04:12.786Z,107.70
2017-11-03T07:09:15.962Z,137.20
2017-11-03T07:14:19.161Z,119.83
2017-11-03T07:19:22.353Z,115.60
2017-11-03T07:24:26.307Z,142.70
2017-11-03T07:29:30.362Z,185.77
2017-11-03T07:34:33.561Z,123.33
2017-11-03T07:39:36.767Z,140.97
2017-11-03T07:44:39.950Z,231.83
2017-11-03T07:49:43.193Z,120.73
2017-11-03T07:54:46.387Z,165.50
2017-11-03T07:59:49.602Z,180.60
2017-11-03T08:04:52.911Z,266.90
2017-11-03T08:09:56.127Z,276.02
2017-11-03T08:14:59.309Z,202.00
2017-11-03T08:20:02.519Z,162.50
2017-11-03T08:25:05.742Z,114.20
2017-11-03T08:30:09.000Z,125.43
2017-11-03T08:35:12.186Z,148.37
2017-11-03T08:40:16.160Z,172.80
2017-11-03T08:45:19.381Z,131.10
2017-11-03T08:50:22.572Z,124.70
2017-11-03T08:55:25.810Z,108.97
2017-11-03T09:00:28.988Z,104.73
2017-11-03T09:05:32.178Z,125.63
2017-11-03T09:10:35.373Z,85.73
2017-11-03T09:15:38.734Z,82.67
2017-11-03T09:20:41.903Z,80.73
2017-11-03T09:25:45.095Z,84.57
2017-11-03T09:30:48.373Z,76.90
2017-11-03T09:35:52.439Z,76.10
2017-11-03T09:40:55.658Z,66.83
2017-11-03T09:45:59.009Z,72.70
2017-11-03T09:51:03.074Z,65.93
2017-11-03T09:56:06.285Z,64.80
2017-11-03T10:01:09.493Z,71.23
2017-11-03T10:06:12.705Z,65.20
2017-11-03T10:11:15.899Z,69.10
2017-11-03T10:16:19.242Z,72.90
2017-11-03T10:21:22.419Z,63.57
2017-11-03T10:26:25.607Z,66.10
2017-11-03T10:31:28.799Z,67.83
2017-11-03T10:36:32.791Z,66.43
2017-11-03T10:41:35.997Z,67.97
2017-11-03T10:46:39.199Z,65.90
2017-11-03T10:51:42.942Z,76.03
2017-11-03T10:56:46.157Z,77.07
2017-11-03T11:01:49.325Z,77.63
2017-11-03T11:06:52.549Z,68.73
2017-11-03T11:11:55.799Z,69.10
2017-11-03T11:16:59.005Z,67.17
2017-11-03T11:22:02.182Z,73.27
2017-11-03T11:27:06.165Z,73.93
2017-11-03T11:32:09.381Z,80.57
2017-11-03T11:37:12.601Z,83.07
2017-11-03T11:42:15.767Z,77.03
2017-11-03T11:47:19.053Z,88.40
2017-11-03T11:52:22.986Z,77.30
2017-11-03T11:57:26.246Z,85.70
2017-11-03T12:02:29.443Z,81.23
2017-11-03T12:07:32.637Z,80.13
2017-11-03T12:12:35.809Z,79.90
2017-11-03T12:17:39.017Z,78.13
2017-11-03T12:22:42.285Z,76.40
2017-11-03T12:27:45.495Z,80.67
2017-11-03T12:32:48.667Z,65.70
2017-11-03T12:37:51.873Z,60.67
2017-11-03T12:42:55.083Z,58.63
2017-11-03T12:47:58.275Z,62.33
2017-11-03T12:53:01.455Z,57.47
2017-11-03T12:58:04.695Z,51.50
2017-11-03T13:03:07.882Z,61.03
2017-11-03T13:08:11.147Z,55.50
2017-11-03T13:13:15.099Z,54.67
2017-11-03T13:18:18.341Z,60.17
2017-11-03T13:23:21.586Z,59.60
2017-11-03T13:28:24.785Z,58.13
2017-11-03T13:33:27.966Z,57.63
2017-11-03T13:38:31.157Z,60.07
2017-11-03T13:43:34.347Z,59.07
2017-11-03T13:48:37.569Z,55.20
2017-11-03T13:53:40.770Z,59.63
2017-11-03T13:58:43.986Z,55.90
2017-11-03T14:03:47.291Z,73.77
2017-11-03T14:08:50.494Z,64.05
2017-11-03T14:13:53.691Z,64.63
2017-11-03T14:18:56.918Z,64.93
2017-11-03T14:24:00.127Z,68.30
2017-11-03T14:29:03.327Z,61.83
2017-11-03T14:34:06.538Z,60.97
2017-11-03T14:39:09.826Z,59.33
2017-11-03T14:44:13.036Z,75.37
2017-11-03T14:49:16.261Z,62.60
2017-11-03T14:54:19.472Z,60.93
2017-11-03T14:59:22.748Z,57.77
2017-11-03T15:04:26.408Z,77.00
2017-11-03T15:09:29.655Z,61.33
2017-11-03T15:14:32.854Z,56.30
2017-11-03T15:19:36.782Z,66.00
2017-11-03T15:24:39.967Z,63.27
2017-11-03T15:29:43.943Z,65.53
2017-11-03T15:34:47.150Z,73.83
2017-11-03T15:39:50.498Z,73.03
2017-11-03T15:44:53.889Z,65.93
2017-11-03T15:49:57.117Z,74.30
2017-11-03T15:55:00.518Z,64.07
2017-11-03T16:00:03.750Z,63.40
2017-11-03T16:05:07.714Z,59.93
2017-11-03T16:10:11.006Z,66.00
2017-11-03T16:15:14.218Z,62.63
2017-11-03T16:20:17.483Z,65.50
2017-11-03T16:25:21.450Z,71.27
2017-11-03T16:30:24.662Z,71.70
2017-11-03T16:35:27.954Z,68.27
2017-11-03T16:40:31.153Z,73.27
2017-11-03T16:45:34.356Z,77.47
2017-11-03T16:50:38.334Z,73.83
2017-11-03T16:55:41.511Z,66.57
2017-11-03T17:00:44.695Z,78.60
2017-11-03T17:05:47.982Z,65.20
2017-11-03T17:10:51.921Z,64.83
2017-11-03T17:15:55.120Z,72.63
2017-11-03T17:20:59.176Z,90.03
2017-11-03T17:26:02.350Z,70.43
2017-11-03T17:31:06.312Z,69.07
2017-11-03T17:36:09.563Z,100.13
2017-11-03T17:41:12.812Z,72.03
2017-11-03T17:46:16.031Z,71.90
2017-11-03T17:51:19.277Z,72.03
2017-11-03T17:56:22.494Z,74.37
2017-11-03T18:01:25.721Z,77.00
2017-11-03T18:06:28.967Z,73.30
2017-11-03T18:11:32.115Z,72.37
2017-11-03T18:16:36.050Z,56.87
2017-11-03T18:21:40.080Z,66.07
2017-11-03T18:26:44.043Z,55.87
2017-11-03T18:31:47.311Z,73.10
2017-11-03T18:36:50.522Z,82.87
2017-11-03T18:41:54.607Z,64.20
2017-11-03T18:46:57.828Z,75.47
2017-11-03T18:52:01.167Z,69.03
2017-11-03T18:57:04.349Z,65.97
2017-11-03T19:02:18.191Z,81.37
2017-11-03T19:07:21.458Z,66.67
2017-11-03T19:12:24.698Z,71.50
2017-11-03T19:17:27.962Z,68.53
2017-11-03T19:22:31.169Z,71.87
2017-11-03T19:27:34.418Z,73.90
2017-11-03T19:32:37.631Z,68.53
2017-11-03T19:37:40.935Z,64.40
2017-11-03T19:42:44.159Z,62.00
2017-11-03T19:47:47.526Z,67.10
2017-11-03T19:52:50.735Z,65.63
2017-11-03T19:57:54.033Z,69.93
2017-11-03T20:02:57.368Z,65.53
2017-11-03T20:08:00.629Z,64.67
2017-11-03T20:13:03.839Z,66.03
2017-11-03T20:18:07.807Z,72.20
2017-11-03T20:23:11.039Z,62.13
2017-11-03T20:28:14.355Z,68.20
2017-11-03T20:33:17.614Z,72.73
2017-11-03T20:38:20.830Z,67.67
2017-11-03T20:43:24.108Z,73.77
2017-11-03T20:48:27.289Z,70.27
2017-11-03T20:53:31.871Z,63.60
2017-11-03T20:58:35.157Z,74.30
2017-11-03T21:03:38.609Z,66.93
2017-11-03T21:08:41.841Z,63.77
2017-11-03T21:13:45.934Z,61.83
2017-11-03T21:18:49.143Z,71.15
2017-11-03T21:23:52.484Z,65.80
2017-11-03T21:28:55.666Z,63.10
2017-11-03T21:33:58.850Z,67.87
2017-11-03T21:39:02.050Z,75.00
2017-11-03T21:44:05.238Z,66.10
2017-11-03T21:49:08.430Z,71.40
2017-11-03T21:54:11.641Z,63.77
2017-11-03T21:59:14.867Z,77.90
2017-11-03T22:04:18.161Z,81.83
2017-11-03T22:09:21.362Z,64.40
2017-11-03T22:14:25.348Z,67.50
2017-11-03T22:19:28.537Z,72.03
2017-11-03T22:24:31.723Z,70.93
2017-11-03T22:29:34.917Z,74.80
2017-11-03T22:34:38.250Z,74.40
2017-11-03T22:39:41.478Z,80.83
2017-11-03T22:44:44.891Z,66.00
2017-11-03T22:49:48.120Z,89.13
2017-11-03T22:54:52.183Z,75.40
2017-11-03T22:59:55.384Z,75.57
2017-11-03T23:04:58.574Z,81.87
2017-11-03T23:10:01.778Z,71.70
2017-11-03T23:15:04.999Z,76.00
2017-11-03T23:20:08.233Z,72.87
2017-11-03T23:25:11.426Z,77.37
2017-11-03T23:30:14.644Z,70.22
2017-11-03T23:35:17.813Z,73.10
2017-11-03T23:40:21.010Z,61.17
2017-11-03T23:45:24.214Z,73.43
2017-11-03T23:50:27.404Z,61.97
2017-11-03T23:55:31.409Z,68.73
